Time;durP1;ratioP1;P1;durP2;ratioP2;P2;SDS_P1;SDS_P2;PMS_P1;PMS_P2;Temp;Humidity;BMP_temperature;BMP_pressure;BME280_temperature;BME280_humidity;BME280_pressure;Samples;Min_cycle;Max_cycle;Signal;HPM_P1;HPM_P2
2023/12/03 00:00:25;;;;;;;1.73;1.25;;;;;;;;;;10095589;28;20095;-72
2023/12/03 00:05:17;;;;;;;1.60;1.50;;;;;;;;;;10109923;28;20044;-69
2023/12/03 00:10:09;;;;;;;2.63;1.30;;;;;;;;;;10108007;28;20069;-71
2023/12/03 00:15:01;;;;;;;1.20;1.20;;;;;;;;;;10108755;28;20041;-69
2023/12/03 00:19:53;;;;;;;3.72;2.60;;;;;;;;;;10108841;28;20155;-69
2023/12/03 00:24:45;;;;;;;28.52;10.70;;;;;;;;;;10108951;28;20468;-69
2023/12/03 00:29:37;;;;;;;28.75;13.57;;;;;;;;;;10108192;28;20147;-72
2023/12/03 00:34:28;;;;;;;16.83;9.45;;;;;;;;;;10107717;28;20047;-69
2023/12/03 00:39:21;;;;;;;1.77;1.67;;;;;;;;;;10108601;28;20179;-71
2023/12/03 00:44:13;;;;;;;3.72;2.85;;;;;;;;;;10108156;28;20072;-72
2023/12/03 00:49:05;;;;;;;20.52;9.98;;;;;;;;;;10107027;28;20045;-71
2023/12/03 00:53:57;;;;;;;3.33;2.88;;;;;;;;;;10108502;28;20468;-72
2023/12/03 00:58:49;;;;;;;6.10;4.50;;;;;;;;;;10098242;28;20488;-72
2023/12/03 01:03:41;;;;;;;9.02;6.13;;;;;;;;;;10103835;28;20065;-72
2023/12/03 01:08:32;;;;;;;4.68;3.20;;;;;;;;;;10108009;28;20049;-71
2023/12/03 01:13:25;;;;;;;5.85;3.83;;;;;;;;;;10106747;28;20111;-70
2023/12/03 01:18:17;;;;;;;5.35;4.28;;;;;;;;;;10106784;28;20056;-69
2023/12/03 01:23:09;;;;;;;10.70;7.25;;;;;;;;;;10093182;28;20376;-72
2023/12/03 01:28:01;;;;;;;7.25;5.50;;;;;;;;;;10067129;28;20079;-71
2023/12/03 01:32:53;;;;;;;6.45;4.22;;;;;;;;;;10067480;28;20512;-71
2023/12/03 01:37:45;;;;;;;4.65;3.75;;;;;;;;;;10066869;28;20136;-72
2023/12/03 01:42:38;;;;;;;7.03;4.22;;;;;;;;;;10066483;28;20052;-71
2023/12/03 01:47:30;;;;;;;6.55;4.85;;;;;;;;;;10066133;28;20091;-71
2023/12/03 01:52:23;;;;;;;8.52;5.63;;;;;;;;;;10061344;28;20046;-72
2023/12/03 01:57:15;;;;;;;9.68;5.40;;;;;;;;;;10062839;28;20075;-71
2023/12/03 02:02:07;;;;;;;17.65;11.07;;;;;;;;;;10060918;28;20471;-72
2023/12/03 02:06:59;;;;;;;22.67;17.23;;;;;;;;;;10061207;28;20111;-72
2023/12/03 02:11:51;;;;;;;17.63;12.98;;;;;;;;;;10059827;28;20049;-72
2023/12/03 02:16:47;;;;;;;8.25;7.35;;;;;;;;;;10062340;28;20033;-71
2023/12/03 02:21:39;;;;;;;10.73;8.43;;;;;;;;;;10060788;28;20046;-70
2023/12/03 02:26:31;;;;;;;15.70;6.40;;;;;;;;;;10062329;28;20045;-69
2023/12/03 02:31:23;;;;;;;11.48;7.88;;;;;;;;;;10059135;28;20045;-69
2023/12/03 02:36:15;;;;;;;6.68;5.13;;;;;;;;;;10063651;28;20041;-69
2023/12/03 02:41:07;;;;;;;54.38;30.45;;;;;;;;;;10058217;28;20164;-72
2023/12/03 02:45:59;;;;;;;16.58;12.05;;;;;;;;;;10060997;28;20041;-72
2023/12/03 02:50:51;;;;;;;15.40;12.32;;;;;;;;;;10056844;28;20084;-72
2023/12/03 02:55:43;;;;;;;26.33;21.02;;;;;;;;;;10061469;28;20072;-72
2023/12/03 03:00:35;;;;;;;22.00;13.15;;;;;;;;;;10062057;28;20431;-69
2023/12/03 03:05:27;;;;;;;7.20;5.75;;;;;;;;;;10070556;28;20056;-70
2023/12/03 03:10:19;;;;;;;14.27;6.22;;;;;;;;;;10064037;28;20080;-70
2023/12/03 03:15:10;;;;;;;49.08;39.53;;;;;;;;;;10067899;28;20041;-70
2023/12/03 03:20:03;;;;;;;10.80;9.45;;;;;;;;;;10067573;28;20140;-69
2023/12/03 03:24:55;;;;;;;6.57;4.95;;;;;;;;;;10068136;28;20080;-69
2023/12/03 03:29:46;;;;;;;22.33;17.00;;;;;;;;;;10069710;28;20045;-70
2023/12/03 03:34:38;;;;;;;31.98;21.85;;;;;;;;;;10067969;28;20049;-69
2023/12/03 03:39:31;;;;;;;89.45;54.35;;;;;;;;;;10065139;28;20394;-69
2023/12/03 03:44:23;;;;;;;25.17;15.05;;;;;;;;;;10068888;28;20428;-69
2023/12/03 03:49:14;;;;;;;19.90;17.80;;;;;;;;;;10066337;28;20345;-69
2023/12/03 03:54:06;;;;;;;8.60;7.47;;;;;;;;;;10066717;28;20041;-69
2023/12/03 03:58:58;;;;;;;7.55;6.82;;;;;;;;;;10066151;28;20072;-69
2023/12/03 04:03:50;;;;;;;6.15;5.63;;;;;;;;;;10065625;28;20049;-69
2023/12/03 04:08:42;;;;;;;8.55;5.55;;;;;;;;;;10065761;28;20179;-70
2023/12/03 04:13:35;;;;;;;6.70;6.10;;;;;;;;;;10065584;28;20410;-70
2023/12/03 04:18:27;;;;;;;7.70;6.53;;;;;;;;;;10064887;28;20057;-69
2023/12/03 04:23:19;;;;;;;6.60;5.97;;;;;;;;;;10066026;28;20133;-69
2023/12/03 04:28:11;;;;;;;7.55;6.75;;;;;;;;;;10065266;28;20056;-70
2023/12/03 04:33:03;;;;;;;10.05;7.00;;;;;;;;;;10063453;28;20876;-69
2023/12/03 04:37:55;;;;;;;8.25;6.68;;;;;;;;;;10065406;28;20033;-69
2023/12/03 04:42:47;;;;;;;7.50;6.40;;;;;;;;;;10064436;28;20053;-71
2023/12/03 04:47:39;;;;;;;10.00;7.75;;;;;;;;;;10064452;28;20119;-70
2023/12/03 04:52:31;;;;;;;9.15;8.20;;;;;;;;;;10064330;28;20052;-70
2023/12/03 04:57:23;;;;;;;11.55;7.55;;;;;;;;;;10063458;28;20046;-70
2023/12/03 05:02:15;;;;;;;15.13;9.93;;;;;;;;;;10063480;28;20037;-70
2023/12/03 05:07:07;;;;;;;11.95;9.13;;;;;;;;;;10061569;28;20053;-70
2023/12/03 05:11:59;;;;;;;13.00;10.80;;;;;;;;;;10062928;28;20049;-70
2023/12/03 05:16:51;;;;;;;16.73;10.05;;;;;;;;;;10063268;28;20046;-70
2023/12/03 05:21:43;;;;;;;10.55;9.52;;;;;;;;;;10062382;28;20056;-70
2023/12/03 05:26:35;;;;;;;13.80;10.00;;;;;;;;;;10062802;28;20084;-70
2023/12/03 05:31:28;;;;;;;9.13;8.23;;;;;;;;;;10062240;28;20046;-70
2023/12/03 05:36:22;;;;;;;19.50;13.13;;;;;;;;;;10062117;28;20041;-69
2023/12/03 05:41:15;;;;;;;11.88;8.65;;;;;;;;;;10063226;28;20479;-70
2023/12/03 05:46:07;;;;;;;7.93;6.90;;;;;;;;;;10062283;28;20091;-70
2023/12/03 05:50:58;;;;;;;7.18;6.13;;;;;;;;;;10059916;28;20049;-70
2023/12/03 05:55:50;;;;;;;7.78;6.18;;;;;;;;;;10061455;28;20092;-70
2023/12/03 06:00:42;;;;;;;9.43;6.78;;;;;;;;;;10062012;28;20400;-70
2023/12/03 06:05:34;;;;;;;9.88;6.07;;;;;;;;;;10062061;28;20457;-70
2023/12/03 06:10:26;;;;;;;7.82;5.70;;;;;;;;;;10062207;28;20045;-70
2023/12/03 06:15:18;;;;;;;8.20;5.72;;;;;;;;;;10061250;28;20051;-71
2023/12/03 06:20:10;;;;;;;10.57;7.03;;;;;;;;;;10060264;28;20057;-70
2023/12/03 06:25:02;;;;;;;6.55;5.75;;;;;;;;;;10060109;28;20466;-70
2023/12/03 06:29:54;;;;;;;6.20;5.60;;;;;;;;;;10060699;28;20045;-69
2023/12/03 06:34:46;;;;;;;7.32;6.10;;;;;;;;;;10065461;28;20137;-70
2023/12/03 06:39:38;;;;;;;7.57;6.35;;;;;;;;;;10068858;28;20046;-70
2023/12/03 06:44:30;;;;;;;9.55;6.55;;;;;;;;;;10068680;28;20049;-70
2023/12/03 06:49:34;;;;;;;9.10;6.00;;;;;;;;;;10068780;28;20061;-69
2023/12/03 06:54:27;;;;;;;6.60;5.40;;;;;;;;;;10068943;28;20354;-70
2023/12/03 06:59:19;;;;;;;8.45;5.13;;;;;;;;;;10069281;28;20045;-70
2023/12/03 07:04:11;;;;;;;11.35;8.18;;;;;;;;;;10068015;28;20468;-70
2023/12/03 07:09:03;;;;;;;10.73;7.40;;;;;;;;;;10067954;28;20061;-69
2023/12/03 07:14:14;;;;;;;13.10;7.35;;;;;;;;;;10064835;28;20125;-69
2023/12/03 07:19:06;;;;;;;7.25;5.68;;;;;;;;;;10064483;28;20057;-69
2023/12/03 07:23:58;;;;;;;9.25;8.35;;;;;;;;;;10065427;28;20041;-69
2023/12/03 07:28:50;;;;;;;12.32;6.93;;;;;;;;;;10066663;28;20439;-69
2023/12/03 07:33:42;;;;;;;8.93;6.88;;;;;;;;;;10063725;28;20156;-69
2023/12/03 07:38:34;;;;;;;11.98;8.05;;;;;;;;;;10067980;28;20037;-69
2023/12/03 07:43:26;;;;;;;16.88;9.90;;;;;;;;;;10070521;28;20037;-68
2023/12/03 07:48:17;;;;;;;10.93;6.00;;;;;;;;;;10067746;28;20122;-70
2023/12/03 07:53:10;;;;;;;5.10;4.60;;;;;;;;;;10063514;28;20081;-68
2023/12/03 07:58:02;;;;;;;22.38;14.00;;;;;;;;;;10060647;28;20065;-69
2023/12/03 08:02:55;;;;;;;10.95;7.35;;;;;;;;;;10068582;28;20049;-70
2023/12/03 08:07:46;;;;;;;7.05;6.10;;;;;;;;;;10082284;28;20136;-70
2023/12/03 08:12:38;;;;;;;10.32;5.70;;;;;;;;;;10096409;28;20041;-70
2023/12/03 08:17:30;;;;;;;9.35;8.45;;;;;;;;;;10091076;28;20063;-70
2023/12/03 08:22:22;;;;;;;6.88;5.40;;;;;;;;;;10092390;28;20110;-70
2023/12/03 08:27:14;;;;;;;6.10;5.50;;;;;;;;;;10073527;28;20460;-70
2023/12/03 08:32:06;;;;;;;7.40;6.57;;;;;;;;;;10094168;28;20080;-70
2023/12/03 08:36:58;;;;;;;6.68;5.88;;;;;;;;;;10088758;28;20037;-70
2023/12/03 08:41:50;;;;;;;8.65;5.95;;;;;;;;;;10082364;28;20479;-71
2023/12/03 08:46:42;;;;;;;5.88;4.38;;;;;;;;;;10065595;28;20045;-70
2023/12/03 08:51:34;;;;;;;5.22;4.72;;;;;;;;;;10064651;28;20145;-70
2023/12/03 08:56:26;;;;;;;4.75;4.32;;;;;;;;;;10060206;28;20492;-70
2023/12/03 09:01:20;;;;;;;4.90;4.28;;;;;;;;;;10070576;28;20585;-70
2023/12/03 09:06:13;;;;;;;6.63;4.68;;;;;;;;;;10066589;28;20045;-72
2023/12/03 09:11:07;;;;;;;11.68;4.15;;;;;;;;;;10070280;28;20099;-72
2023/12/03 09:15:59;;;;;;;8.77;5.03;;;;;;;;;;10065958;28;20202;-72
2023/12/03 09:20:51;;;;;;;5.95;5.35;;;;;;;;;;10081182;28;20049;-72
2023/12/03 09:25:43;;;;;;;6.97;4.57;;;;;;;;;;10071927;28;20490;-72
2023/12/03 09:30:35;;;;;;;5.50;4.60;;;;;;;;;;10098498;28;20139;-72
2023/12/03 09:35:30;;;;;;;5.90;5.03;;;;;;;;;;10101839;28;20083;-72
2023/12/03 09:40:23;;;;;;;5.50;4.45;;;;;;;;;;10079328;28;20412;-72
2023/12/03 09:45:16;;;;;;;5.30;4.65;;;;;;;;;;10081338;28;20492;-71
2023/12/03 09:50:08;;;;;;;4.78;4.38;;;;;;;;;;10085633;28;20490;-73
2023/12/03 09:55:04;;;;;;;6.63;5.72;;;;;;;;;;10104398;28;20052;-71
2023/12/03 09:59:58;;;;;;;6.63;4.55;;;;;;;;;;10102786;28;20483;-73
2023/12/03 10:04:49;;;;;;;5.55;4.95;;;;;;;;;;10099863;28;20521;-72
2023/12/03 10:09:42;;;;;;;5.30;4.80;;;;;;;;;;10099628;28;20133;-73
2023/12/03 10:14:34;;;;;;;10.93;5.75;;;;;;;;;;10100124;28;20372;-73
2023/12/03 10:19:27;;;;;;;8.52;4.90;;;;;;;;;;10103729;28;20045;-75
2023/12/03 10:24:21;;;;;;;6.30;4.78;;;;;;;;;;10064438;28;20132;-74
2023/12/03 10:29:15;;;;;;;5.70;4.60;;;;;;;;;;10081293;28;20102;-72
2023/12/03 10:34:07;;;;;;;5.25;4.75;;;;;;;;;;10074181;28;20052;-72
2023/12/03 10:39:06;;;;;;;6.03;5.00;;;;;;;;;;10081043;28;20110;-72
2023/12/03 10:43:58;;;;;;;5.77;5.17;;;;;;;;;;10082487;28;20488;-73
2023/12/03 10:48:50;;;;;;;18.77;11.38;;;;;;;;;;10082096;28;20061;-72
2023/12/03 10:53:42;;;;;;;6.43;5.07;;;;;;;;;;10065887;28;20052;-72
2023/12/03 10:58:38;;;;;;;6.45;5.85;;;;;;;;;;10083488;28;20119;-72
2023/12/03 11:03:47;;;;;;;5.22;4.65;;;;;;;;;;10096523;28;20547;-72
2023/12/03 11:08:39;;;;;;;;;;;;;;;;;;10094086;28;20044;-72
2023/12/03 11:13:32;;;;;;;6.18;4.97;;;;;;;;;;10089443;28;19924;-72
2023/12/03 11:19:02;;;;;;;6.15;4.70;;;;;;;;;;10089084;28;20050;-72
2023/12/03 11:24:19;;;;;;;9.20;6.35;;;;;;;;;;10070898;28;20041;-73
2023/12/03 11:29:11;;;;;;;8.63;6.38;;;;;;;;;;10065896;28;20041;-72
2023/12/03 11:34:05;;;;;;;6.65;4.93;;;;;;;;;;10075914;28;20120;-72
2023/12/03 11:38:57;;;;;;;6.45;5.78;;;;;;;;;;10089259;28;20045;-72
2023/12/03 11:43:49;;;;;;;6.22;5.63;;;;;;;;;;10090674;28;20081;-72
2023/12/03 11:48:41;;;;;;;7.63;5.38;;;;;;;;;;10071417;28;20042;-72
2023/12/03 11:53:48;;;;;;;8.35;6.57;;;;;;;;;;10071013;28;20064;-72
2023/12/03 11:58:40;;;;;;;6.82;6.15;;;;;;;;;;10072737;28;20069;-72
2023/12/03 12:03:32;;;;;;;7.28;6.30;;;;;;;;;;10091554;28;20111;-74
2023/12/03 12:08:24;;;;;;;7.38;6.57;;;;;;;;;;10107419;28;20052;-73
2023/12/03 12:13:17;;;;;;;11.32;6.25;;;;;;;;;;10097590;28;20175;-72
2023/12/03 12:18:12;;;;;;;7.20;5.90;;;;;;;;;;10106754;28;20523;-72
2023/12/03 12:23:04;;;;;;;8.75;6.38;;;;;;;;;;10097799;28;20037;-71
2023/12/03 12:27:56;;;;;;;10.77;6.68;;;;;;;;;;10072377;28;20038;-71
2023/12/03 12:32:51;;;;;;;8.38;6.30;;;;;;;;;;10067516;28;20041;-71
2023/12/03 12:37:43;;;;;;;6.95;6.35;;;;;;;;;;10063359;28;20069;-71
2023/12/03 12:42:40;;;;;;;13.02;6.80;;;;;;;;;;10064246;28;20085;-71
2023/12/03 12:47:35;;;;;;;10.10;7.50;;;;;;;;;;10064991;28;20049;-71
2023/12/03 12:52:28;;;;;;;11.43;6.93;;;;;;;;;;10067349;28;20050;-71
2023/12/03 12:57:20;;;;;;;10.85;6.65;;;;;;;;;;10080401;28;20415;-70
2023/12/03 13:02:19;;;;;;;6.75;5.38;;;;;;;;;;10066798;28;20080;-71
2023/12/03 13:07:11;;;;;;;21.10;10.10;;;;;;;;;;10059989;28;20468;-71
2023/12/03 13:12:03;;;;;;;11.02;6.40;;;;;;;;;;10064744;28;20487;-71
2023/12/03 13:16:56;;;;;;;7.60;5.28;;;;;;;;;;10066868;28;20054;-71
2023/12/03 13:21:48;;;;;;;5.03;4.28;;;;;;;;;;10054733;28;20049;-72
2023/12/03 13:26:40;;;;;;;6.05;4.80;;;;;;;;;;10063823;28;20464;-71
2023/12/03 13:31:32;;;;;;;7.90;5.50;;;;;;;;;;10059663;28;20049;-73
2023/12/03 13:36:24;;;;;;;5.93;4.00;;;;;;;;;;10061678;28;20042;-74
2023/12/03 13:41:16;;;;;;;10.75;5.90;;;;;;;;;;10064764;28;20045;-73
2023/12/03 13:46:08;;;;;;;6.82;5.45;;;;;;;;;;10056668;28;20078;-74
2023/12/03 13:51:00;;;;;;;5.55;4.47;;;;;;;;;;10052909;28;20045;-74
2023/12/03 13:55:52;;;;;;;8.80;5.38;;;;;;;;;;10057186;28;20077;-74
2023/12/03 14:00:44;;;;;;;9.35;6.05;;;;;;;;;;10056770;28;20053;-74
2023/12/03 14:05:36;;;;;;;9.63;5.95;;;;;;;;;;10061158;28;20548;-75
2023/12/03 14:10:29;;;;;;;6.97;4.68;;;;;;;;;;10058701;28;20131;-74
2023/12/03 14:15:21;;;;;;;6.93;5.22;;;;;;;;;;10059419;28;20132;-73
2023/12/03 14:20:13;;;;;;;7.15;5.15;;;;;;;;;;10059559;28;20058;-74
2023/12/03 14:25:05;;;;;;;9.02;4.50;;;;;;;;;;10055832;28;20079;-73
2023/12/03 14:29:57;;;;;;;6.40;4.60;;;;;;;;;;10051551;28;20073;-73
2023/12/03 14:34:49;;;;;;;7.38;5.13;;;;;;;;;;10061228;28;20060;-75
2023/12/03 14:39:42;;;;;;;7.95;5.38;;;;;;;;;;10056572;28;20111;-74
2023/12/03 14:44:34;;;;;;;10.38;6.63;;;;;;;;;;10056347;28;20049;-74
2023/12/03 14:49:26;;;;;;;5.60;4.72;;;;;;;;;;10048563;28;20045;-74
2023/12/03 14:54:19;;;;;;;18.13;14.32;;;;;;;;;;10056853;28;20108;-73
2023/12/03 14:59:12;;;;;;;19.00;16.77;;;;;;;;;;10064917;28;20104;-73
2023/12/03 15:04:04;;;;;;;24.75;15.65;;;;;;;;;;10061715;28;20051;-73
2023/12/03 15:08:57;;;;;;;23.52;20.98;;;;;;;;;;10068251;28;20048;-74
2023/12/03 15:13:49;;;;;;;12.90;10.52;;;;;;;;;;10059968;28;20132;-74
2023/12/03 15:18:44;;;;;;;17.90;13.02;;;;;;;;;;10062768;28;20085;-74
2023/12/03 15:23:38;;;;;;;13.32;11.68;;;;;;;;;;10062086;28;20085;-74
2023/12/03 15:28:30;;;;;;;119.40;93.55;;;;;;;;;;10058492;28;20542;-74
2023/12/03 15:33:22;;;;;;;48.13;33.55;;;;;;;;;;10058087;28;20046;-75
2023/12/03 15:38:14;;;;;;;16.40;12.43;;;;;;;;;;10060881;28;20085;-74
2023/12/03 15:43:06;;;;;;;8.20;6.95;;;;;;;;;;10069102;28;20124;-74
2023/12/03 15:47:58;;;;;;;54.80;38.05;;;;;;;;;;10061229;28;20061;-75
2023/12/03 15:52:50;;;;;;;17.65;13.52;;;;;;;;;;10057070;28;20037;-75
2023/12/03 15:57:42;;;;;;;15.18;11.75;;;;;;;;;;10063781;28;20046;-75
2023/12/03 16:02:34;;;;;;;15.00;11.55;;;;;;;;;;10055190;28;20056;-74
2023/12/03 16:07:27;;;;;;;10.57;8.05;;;;;;;;;;10064487;28;20376;-74
2023/12/03 16:12:20;;;;;;;17.77;13.52;;;;;;;;;;10065790;28;20041;-75
2023/12/03 16:17:12;;;;;;;12.25;8.55;;;;;;;;;;10066105;28;20050;-75
2023/12/03 16:22:14;;;;;;;12.13;9.60;;;;;;;;;;10065274;28;20053;-74
2023/12/03 16:27:06;;;;;;;8.90;7.97;;;;;;;;;;10059219;28;20099;-75
2023/12/03 16:32:01;;;;;;;8.48;6.95;;;;;;;;;;10096580;28;20163;-75
2023/12/03 16:36:52;;;;;;;13.25;8.07;;;;;;;;;;10076920;28;20460;-75
2023/12/03 16:41:44;;;;;;;19.83;10.73;;;;;;;;;;10072911;28;21338;-75
2023/12/03 16:46:36;;;;;;;14.20;10.93;;;;;;;;;;10102237;28;20051;-75
2023/12/03 16:51:31;;;;;;;12.95;9.32;;;;;;;;;;10098675;28;20177;-75
2023/12/03 16:56:24;;;;;;;12.95;10.38;;;;;;;;;;10098489;28;20520;-74
2023/12/03 17:01:15;;;;;;;14.68;10.52;;;;;;;;;;10086788;28;20045;-74
2023/12/03 17:06:07;;;;;;;22.95;15.93;;;;;;;;;;10077306;28;20043;-74
2023/12/03 17:10:59;;;;;;;17.90;16.05;;;;;;;;;;10106365;28;20150;-74
2023/12/03 17:15:51;;;;;;;13.73;10.68;;;;;;;;;;10082137;28;20091;-74
2023/12/03 17:20:43;;;;;;;21.90;16.75;;;;;;;;;;10091387;28;20049;-74
2023/12/03 17:25:35;;;;;;;23.67;14.48;;;;;;;;;;10094059;28;20053;-74
2023/12/03 17:30:28;;;;;;;21.25;17.83;;;;;;;;;;10105981;28;20083;-74
2023/12/03 17:35:21;;;;;;;22.20;19.42;;;;;;;;;;10092856;28;20041;-74
2023/12/03 17:40:14;;;;;;;19.52;15.40;;;;;;;;;;10075758;28;20124;-77
2023/12/03 17:45:08;;;;;;;15.07;12.68;;;;;;;;;;10064267;28;20041;-73
2023/12/03 17:50:01;;;;;;;20.10;13.48;;;;;;;;;;10083225;28;20132;-74
2023/12/03 17:54:53;;;;;;;32.80;25.55;;;;;;;;;;10098390;28;20079;-74
2023/12/03 17:59:45;;;;;;;25.45;19.27;;;;;;;;;;10081046;28;20128;-73
2023/12/03 18:04:37;;;;;;;34.78;29.38;;;;;;;;;;10100316;28;20053;-73
2023/12/03 18:09:29;;;;;;;25.70;22.83;;;;;;;;;;10084511;28;20440;-74
2023/12/03 18:14:22;;;;;;;26.85;23.90;;;;;;;;;;10062146;28;20435;-75
2023/12/03 18:19:15;;;;;;;28.73;23.83;;;;;;;;;;10088213;28;20052;-74
2023/12/03 18:24:07;;;;;;;17.60;15.77;;;;;;;;;;10077481;28;20413;-74
2023/12/03 18:28:59;;;;;;;15.55;13.82;;;;;;;;;;10058249;28;20045;-74
2023/12/03 18:33:51;;;;;;;16.38;14.68;;;;;;;;;;10071621;28;20468;-74
2023/12/03 18:38:43;;;;;;;23.40;15.77;;;;;;;;;;10088547;28;20103;-74
2023/12/03 18:43:36;;;;;;;22.95;15.63;;;;;;;;;;10045047;28;20060;-74
2023/12/03 18:48:28;;;;;;;23.20;13.95;;;;;;;;;;10074162;28;20034;-74
2023/12/03 18:53:20;;;;;;;39.50;26.77;;;;;;;;;;10067550;28;20092;-75
2023/12/03 18:58:12;;;;;;;19.90;10.65;;;;;;;;;;10083854;28;20056;-75
2023/12/03 19:03:04;;;;;;;24.02;18.13;;;;;;;;;;10067886;28;20053;-75
2023/12/03 19:07:59;;;;;;;27.00;20.27;;;;;;;;;;10083727;28;20088;-75
2023/12/03 19:12:52;;;;;;;20.85;15.35;;;;;;;;;;10093918;28;20045;-75
2023/12/03 19:17:53;;;;;;;18.02;14.23;;;;;;;;;;10056740;28;20144;-75
2023/12/03 19:22:44;;;;;;;21.73;14.85;;;;;;;;;;10048732;28;20053;-73
2023/12/03 19:27:36;;;;;;;12.85;10.43;;;;;;;;;;10055369;28;20100;-74
2023/12/03 19:32:28;;;;;;;15.05;11.32;;;;;;;;;;10062329;28;20372;-73
2023/12/03 19:37:20;;;;;;;11.77;10.63;;;;;;;;;;10072377;28;20046;-74
2023/12/03 19:42:12;;;;;;;14.77;9.23;;;;;;;;;;10066381;28;20179;-75
2023/12/03 19:47:04;;;;;;;12.57;9.13;;;;;;;;;;10060204;28;20042;-75
2023/12/03 19:52:00;;;;;;;19.83;13.77;;;;;;;;;;10063659;28;20041;-75
2023/12/03 19:56:52;;;;;;;10.45;8.50;;;;;;;;;;10063015;28;20451;-75
2023/12/03 20:01:45;;;;;;;12.10;10.82;;;;;;;;;;10064760;28;20053;-73
2023/12/03 20:06:37;;;;;;;8.93;7.10;;;;;;;;;;10065950;28;20042;-74
2023/12/03 20:11:29;;;;;;;8.07;6.80;;;;;;;;;;10060478;28;20148;-72
2023/12/03 20:16:21;;;;;;;10.55;9.27;;;;;;;;;;10066920;28;20061;-71
2023/12/03 20:21:16;;;;;;;18.15;14.05;;;;;;;;;;10067380;28;20393;-75
2023/12/03 20:26:10;;;;;;;14.65;11.98;;;;;;;;;;10048846;28;20037;-75
2023/12/03 20:31:03;;;;;;;11.15;9.90;;;;;;;;;;10057800;28;20049;-75
2023/12/03 20:35:55;;;;;;;10.23;8.52;;;;;;;;;;10061532;28;20045;-75
2023/12/03 20:40:48;;;;;;;10.15;8.13;;;;;;;;;;10064878;28;20087;-75
2023/12/03 20:45:40;;;;;;;10.27;6.70;;;;;;;;;;10067503;28;20084;-75
2023/12/03 20:50:33;;;;;;;6.63;5.93;;;;;;;;;;10065804;28;20050;-75
2023/12/03 20:55:26;;;;;;;16.67;7.50;;;;;;;;;;10064842;28;20358;-75
2023/12/03 21:00:18;;;;;;;7.93;6.00;;;;;;;;;;10064902;28;20184;-74
2023/12/03 21:05:10;;;;;;;7.70;6.22;;;;;;;;;;10078618;28;20384;-73
2023/12/03 21:10:02;;;;;;;8.10;5.80;;;;;;;;;;10073095;28;20137;-74
2023/12/03 21:14:55;;;;;;;6.95;6.10;;;;;;;;;;10078491;28;20449;-74
2023/12/03 21:19:46;;;;;;;7.63;6.57;;;;;;;;;;10072219;28;20058;-74
2023/12/03 21:24:39;;;;;;;6.65;6.00;;;;;;;;;;10062414;28;20049;-74
2023/12/03 21:29:30;;;;;;;7.30;6.60;;;;;;;;;;10076698;28;20037;-73
2023/12/03 21:34:22;;;;;;;7.53;6.43;;;;;;;;;;10060236;28;20092;-74
2023/12/03 21:39:14;;;;;;;7.03;5.35;;;;;;;;;;10056735;28;20053;-74
2023/12/03 21:44:07;;;;;;;6.90;6.10;;;;;;;;;;10055344;28;20065;-75
2023/12/03 21:48:59;;;;;;;7.22;5.57;;;;;;;;;;10053309;28;20050;-75
2023/12/03 21:53:51;;;;;;;7.97;6.70;;;;;;;;;;10031184;28;20100;-75
2023/12/03 21:58:43;;;;;;;6.68;6.07;;;;;;;;;;10055745;28;20053;-74
2023/12/03 22:03:35;;;;;;;6.72;5.82;;;;;;;;;;10055751;28;20041;-74
2023/12/03 22:08:27;;;;;;;5.93;5.10;;;;;;;;;;10038949;28;20439;-75
2023/12/03 22:13:19;;;;;;;7.50;5.85;;;;;;;;;;10051787;28;20284;-74
2023/12/03 22:18:11;;;;;;;7.07;6.05;;;;;;;;;;10051200;28;20053;-74
2023/12/03 22:23:03;;;;;;;7.30;6.45;;;;;;;;;;10054240;28;20540;-74
2023/12/03 22:27:55;;;;;;;8.90;6.03;;;;;;;;;;10056346;28;20042;-74
2023/12/03 22:32:47;;;;;;;7.13;6.43;;;;;;;;;;10056454;28;20581;-74
2023/12/03 22:37:39;;;;;;;20.38;13.35;;;;;;;;;;10052435;28;20477;-74
2023/12/03 22:42:31;;;;;;;35.05;18.40;;;;;;;;;;10058678;28;20096;-74
2023/12/03 22:47:23;;;;;;;13.38;9.32;;;;;;;;;;10046830;28;20380;-74
2023/12/03 22:52:15;;;;;;;7.25;5.90;;;;;;;;;;10038965;28;20049;-74
2023/12/03 22:57:07;;;;;;;6.72;6.03;;;;;;;;;;10064845;28;20057;-74
2023/12/03 23:01:59;;;;;;;7.43;5.57;;;;;;;;;;10062349;28;20057;-73
2023/12/03 23:06:51;;;;;;;9.00;5.65;;;;;;;;;;10042013;28;20594;-74
2023/12/03 23:11:43;;;;;;;7.07;5.03;;;;;;;;;;10060267;28;20057;-73
2023/12/03 23:16:41;;;;;;;6.03;5.45;;;;;;;;;;10031373;28;20082;-73
2023/12/03 23:21:33;;;;;;;9.53;5.27;;;;;;;;;;10057720;28;20489;-73
2023/12/03 23:26:25;;;;;;;5.85;4.75;;;;;;;;;;10063996;28;20049;-73
2023/12/03 23:31:18;;;;;;;6.10;4.78;;;;;;;;;;10066025;28;20057;-73
2023/12/03 23:36:10;;;;;;;5.20;4.70;;;;;;;;;;10071273;28;20041;-73
2023/12/03 23:41:02;;;;;;;8.85;4.93;;;;;;;;;;10070760;28;20049;-73
2023/12/03 23:45:54;;;;;;;4.95;4.20;;;;;;;;;;10071143;28;20103;-73
2023/12/03 23:50:46;;;;;;;5.57;4.88;;;;;;;;;;10070936;28;20042;-73
2023/12/03 23:55:37;;;;;;;6.00;5.38;;;;;;;;;;10064717;28;20050;-73
